Time;durP1;ratioP1;P1;durP2;ratioP2;P2;SDS_P1;SDS_P2;PMS_P1;PMS_P2;Temp;Humidity;BMP_temperature;BMP_pressure;BME280_temperature;BME280_humidity;BME280_pressure;Samples;Min_cycle;Max_cycle;Signal;HPM_P1;HPM_P2
2022/06/12 00:00:22;;;;;;;17.95;5.30;;;16.00;99.90;;;;;;4918423;29;20210;-89
2022/06/12 00:02:49;;;;;;;29.27;7.00;;;16.00;99.90;;;;;;4915926;29;20234;-89
2022/06/12 00:05:20;;;;;;;26.20;6.32;;;16.00;99.90;;;;;;4924636;29;20269;-92
2022/06/12 00:07:47;;;;;;;21.13;4.97;;;16.00;99.90;;;;;;4934194;29;20233;-89
2022/06/12 00:10:15;;;;;;;17.95;4.40;;;16.00;99.90;;;;;;4933181;29;20218;-92
2022/06/12 00:12:44;;;;;;;23.20;4.40;;;16.00;99.90;;;;;;4934548;29;20205;-91
2022/06/12 00:15:13;;;;;;;14.75;4.25;;;16.00;99.90;;;;;;4933815;29;20650;-92
2022/06/12 00:17:43;;;;;;;21.10;5.78;;;15.90;99.90;;;;;;4933608;29;20516;-89
2022/06/12 00:20:12;;;;;;;19.27;4.97;;;15.90;99.90;;;;;;4933769;29;20213;-94
2022/06/12 00:22:42;;;;;;;18.60;4.38;;;15.90;99.90;;;;;;4932497;29;20532;-91
2022/06/12 00:25:12;;;;;;;17.88;4.72;;;15.90;99.90;;;;;;4933957;29;20198;-90
2022/06/12 00:27:39;;;;;;;17.42;4.63;;;15.90;99.90;;;;;;4934893;29;20206;-90
2022/06/12 00:30:08;;;;;;;22.50;5.63;;;15.80;99.90;;;;;;4931928;29;20205;-95
2022/06/12 00:32:36;;;;;;;22.92;6.07;;;15.80;99.90;;;;;;4928802;29;20224;-90
2022/06/12 00:35:05;;;;;;;28.25;5.93;;;15.80;99.90;;;;;;4934026;29;20276;-89
2022/06/12 00:37:33;;;;;;;19.65;5.55;;;15.80;99.90;;;;;;4933610;29;20615;-92
2022/06/12 00:40:03;;;;;;;23.10;5.47;;;15.80;99.90;;;;;;4933545;29;20866;-90
2022/06/12 00:42:33;;;;;;;22.33;5.88;;;15.80;99.90;;;;;;4932339;29;20313;-91
2022/06/12 00:45:22;;;;;;;29.95;7.30;;;15.80;99.90;;;;;;4933983;29;20866;-91
2022/06/12 00:47:49;;;;;;;23.73;6.95;;;15.70;99.90;;;;;;4934017;29;20317;-90
2022/06/12 00:50:16;;;;;;;26.58;7.05;;;15.70;99.90;;;;;;4933902;29;20249;-91
2022/06/12 00:52:46;;;;;;;26.17;7.32;;;15.70;99.90;;;;;;4934944;29;20229;-89
2022/06/12 00:55:25;;;;;;;18.00;4.82;;;15.70;99.90;;;;;;4934513;29;20402;-90
2022/06/12 00:57:52;;;;;;;26.25;6.45;;;15.70;99.90;;;;;;4933899;29;20825;-91
2022/06/12 01:00:20;;;;;;;28.45;6.38;;;15.70;99.90;;;;;;4918136;29;20301;-91
2022/06/12 01:02:47;;;;;;;20.17;6.22;;;15.70;99.90;;;;;;4918626;29;20297;-88
2022/06/12 01:08:04;;;;;;;28.45;7.28;;;15.70;99.90;;;;;;4919673;29;20277;-89
2022/06/12 01:10:34;;;;;;;27.40;6.68;;;15.70;99.90;;;;;;4918831;29;20187;-89
2022/06/12 01:13:04;;;;;;;27.60;6.30;;;15.70;99.90;;;;;;4929093;29;20238;-90
2022/06/12 01:15:35;;;;;;;31.38;6.03;;;15.70;99.90;;;;;;4938025;29;20986;-90
2022/06/12 01:18:04;;;;;;;22.77;5.70;;;15.70;99.90;;;;;;4936982;29;20501;-91
2022/06/12 01:20:42;;;;;;;25.60;6.20;;;15.70;99.90;;;;;;4936554;29;20292;-89
2022/06/12 01:24:02;;;;;;;27.75;6.47;;;15.70;99.90;;;;;;4918805;29;20222;-90
2022/06/12 01:27:08;;;;;;;22.38;6.25;;;15.70;99.90;;;;;;4860299;29;20292;-91
2022/06/12 01:29:45;;;;;;;26.98;6.25;;;15.70;99.90;;;;;;4914424;29;20228;-91
2022/06/12 01:32:16;;;;;;;23.67;6.38;;;15.70;99.90;;;;;;4918045;29;20220;-91
2022/06/12 01:34:50;;;;;;;27.42;6.90;;;15.70;99.90;;;;;;4917351;29;20875;-92
2022/06/12 01:37:31;;;;;;;22.58;6.28;;;15.80;99.90;;;;;;4932574;29;20241;-90
2022/06/12 01:40:08;;;;;;;22.83;6.43;;;15.70;99.90;;;;;;4937632;29;20210;-91
2022/06/12 01:42:41;;;;;;;28.48;6.53;;;15.80;99.90;;;;;;4936295;29;20202;-90
2022/06/12 01:45:18;;;;;;;22.83;6.85;;;15.70;99.90;;;;;;4936107;29;20359;-91
2022/06/12 01:47:55;;;;;;;18.40;5.63;;;15.70;99.90;;;;;;4935573;29;20202;-90
2022/06/12 01:50:31;;;;;;;20.17;5.95;;;15.70;99.90;;;;;;4936096;29;20662;-90
2022/06/12 01:53:03;;;;;;;21.02;5.63;;;15.60;99.90;;;;;;4937625;29;20221;-91
2022/06/12 01:55:38;;;;;;;22.20;6.15;;;15.60;99.90;;;;;;4937095;29;20657;-90
2022/06/12 01:58:10;;;;;;;21.57;6.07;;;15.60;99.90;;;;;;4936630;29;20213;-89
2022/06/12 02:00:41;;;;;;;27.50;7.15;;;15.60;99.90;;;;;;4937243;29;20288;-90
2022/06/12 02:03:12;;;;;;;23.15;6.13;;;15.60;99.90;;;;;;4934948;29;20270;-92
2022/06/12 02:05:46;;;;;;;26.75;7.53;;;15.50;99.90;;;;;;4934525;29;20218;-91
2022/06/12 02:08:18;;;;;;;25.70;8.20;;;15.50;99.90;;;;;;4925404;29;20979;-91
2022/06/12 02:10:50;;;;;;;25.35;6.85;;;15.50;99.90;;;;;;4932933;29;20217;-90
2022/06/12 02:13:22;;;;;;;25.17;6.53;;;15.50;99.90;;;;;;4932598;29;20606;-90
2022/06/12 02:15:55;;;;;;;28.40;7.22;;;15.50;99.90;;;;;;4932368;29;20218;-89
2022/06/12 02:18:30;;;;;;;26.30;8.10;;;15.50;99.90;;;;;;4926002;29;20217;-91
2022/06/12 02:21:04;;;;;;;28.30;6.93;;;15.50;99.90;;;;;;4914681;29;20216;-91
2022/06/12 02:23:37;;;;;;;27.65;6.32;;;15.50;99.90;;;;;;4919325;29;20217;-93
2022/06/12 02:26:07;;;;;;;19.27;5.50;;;15.60;99.90;;;;;;4933159;29;20221;-91
2022/06/12 02:28:41;;;;;;;24.75;6.50;;;15.50;99.90;;;;;;4935065;29;20201;-92
2022/06/12 02:31:13;;;;;;;24.83;5.95;;;15.50;99.90;;;;;;4934986;29;20578;-92
2022/06/12 02:33:45;;;;;;;21.27;5.45;;;15.50;99.90;;;;;;4933862;29;20209;-93
2022/06/12 02:36:19;;;;;;;25.20;5.85;;;15.50;99.90;;;;;;4933298;29;20278;-92
2022/06/12 02:38:50;;;;;;;22.02;5.75;;;15.50;99.90;;;;;;4916906;29;20309;-92
2022/06/12 02:41:23;;;;;;;18.15;5.80;;;15.50;99.90;;;;;;4914665;29;20278;-89
2022/06/12 02:43:54;;;;;;;21.05;5.43;;;15.50;99.90;;;;;;4920945;29;20221;-91
2022/06/12 02:46:30;;;;;;;17.45;5.22;;;15.40;99.90;;;;;;4936114;29;20210;-92
2022/06/12 02:48:57;;;;;;;21.80;4.95;;;15.40;99.90;;;;;;4934328;29;20500;-95
2022/06/12 02:51:31;;;;;;;15.73;4.50;;;15.40;99.90;;;;;;4934171;29;20518;-88
2022/06/12 02:54:10;;;;;;;17.92;4.45;;;15.50;99.90;;;;;;4936054;29;20213;-90
2022/06/12 02:56:47;;;;;;;17.75;4.30;;;15.60;99.90;;;;;;4935886;29;20816;-90
2022/06/12 02:59:27;;;;;;;20.42;4.57;;;15.60;99.90;;;;;;4935028;29;20220;-90
2022/06/12 03:02:15;;;;;;;17.75;4.72;;;15.70;99.90;;;;;;4935883;29;20206;-89
2022/06/12 03:04:48;;;;;;;13.02;3.92;;;15.80;99.90;;;;;;4935658;29;20293;-89
2022/06/12 03:07:16;;;;;;;16.02;3.83;;;15.80;99.90;;;;;;4935871;29;20208;-91
2022/06/12 03:09:43;;;;;;;19.85;5.10;;;15.80;99.90;;;;;;4935804;29;20241;-90
2022/06/12 03:12:10;;;;;;;16.42;4.40;;;15.80;99.90;;;;;;4926228;29;20289;-91
2022/06/12 03:14:37;;;;;;;12.88;4.60;;;15.80;99.90;;;;;;4935938;29;20202;-91
2022/06/12 03:17:06;;;;;;;14.63;4.00;;;15.80;99.90;;;;;;4935622;29;20240;-88
2022/06/12 03:19:42;;;;;;;20.92;4.80;;;15.90;99.90;;;;;;4935023;29;20210;-92
2022/06/12 03:22:16;;;;;;;15.52;4.32;;;15.90;99.90;;;;;;4926044;29;20263;-94
2022/06/12 03:24:57;;;;;;;17.60;4.60;;;15.90;99.90;;;;;;4934955;29;20304;-90
2022/06/12 03:27:53;;;;;;;16.35;4.43;;;15.90;99.90;;;;;;4928646;29;20213;-90
2022/06/12 03:30:30;;;;;;;20.25;4.50;;;15.90;99.90;;;;;;4913525;29;20198;-90
2022/06/12 03:33:07;;;;;;;16.08;4.45;;;15.90;99.90;;;;;;4936019;29;20212;-93
2022/06/12 03:35:48;;;;;;;13.75;4.47;;;16.00;99.90;;;;;;4935981;29;20198;-91
2022/06/12 03:38:24;;;;;;;14.23;4.03;;;15.90;99.90;;;;;;4935261;29;20237;-90
2022/06/12 03:40:59;;;;;;;13.70;4.70;;;15.90;99.90;;;;;;4934869;29;20292;-90
2022/06/12 03:43:33;;;;;;;16.02;4.70;;;15.90;99.90;;;;;;4936021;29;20228;-93
2022/06/12 03:46:10;;;;;;;15.65;4.43;;;16.00;99.90;;;;;;4929469;29;20606;-89
2022/06/12 03:48:42;;;;;;;18.13;4.13;;;15.90;99.90;;;;;;4934416;29;20292;-90
2022/06/12 03:51:15;;;;;;;13.13;3.97;;;15.90;99.90;;;;;;4926798;29;20253;-90
2022/06/12 03:53:49;;;;;;;12.85;3.95;;;15.90;99.90;;;;;;4935079;29;20233;-87
2022/06/12 03:59:15;;;;;;;8.77;3.38;;;16.00;99.90;;;;;;4933864;29;20720;-91
2022/06/12 04:01:46;;;;;;;14.95;4.05;;;16.00;99.90;;;;;;4933384;29;20205;-90
2022/06/12 04:04:17;;;;;;;16.23;4.13;;;16.00;99.90;;;;;;4932069;29;20209;-89
2022/06/12 04:06:45;;;;;;;14.40;4.32;;;16.00;99.90;;;;;;4934404;29;20209;-89
2022/06/12 04:09:18;;;;;;;12.07;3.85;;;16.00;99.90;;;;;;4934942;29;20217;-88
2022/06/12 04:11:53;;;;;;;9.05;3.40;;;15.90;99.90;;;;;;4935267;29;20708;-89
2022/06/12 04:14:23;;;;;;;15.60;3.50;;;15.90;99.90;;;;;;4935313;29;20281;-89
2022/06/12 04:16:53;;;;;;;11.60;3.90;;;15.90;99.90;;;;;;4934826;29;20634;-88
2022/06/12 04:19:24;;;;;;;13.05;3.42;;;15.90;99.90;;;;;;4935228;29;20224;-92
2022/06/12 04:21:59;;;;;;;9.75;3.22;;;16.00;99.90;;;;;;4935621;29;20762;-90
2022/06/12 04:24:30;;;;;;;11.15;3.22;;;15.90;99.90;;;;;;4928329;29;20717;-89
2022/06/12 04:27:00;;;;;;;12.18;3.67;;;15.90;99.90;;;;;;4916551;29;20201;-88
2022/06/12 04:29:30;;;;;;;11.98;3.40;;;15.90;99.90;;;;;;4917189;29;20214;-96
2022/06/12 04:32:00;;;;;;;8.93;3.75;;;16.00;99.90;;;;;;4917051;29;20295;-92
2022/06/12 04:34:31;;;;;;;10.15;3.15;;;16.20;99.90;;;;;;4917920;29;20211;-89
2022/06/12 04:37:00;;;;;;;9.70;3.20;;;16.20;99.90;;;;;;4926865;29;20234;-92
2022/06/12 04:39:30;;;;;;;11.27;3.40;;;16.30;99.90;;;;;;4939777;29;20474;-92
2022/06/12 04:41:58;;;;;;;8.10;2.60;;;16.40;99.90;;;;;;4939338;29;20210;-88
2022/06/12 04:44:25;;;;;;;7.22;2.90;;;16.40;99.90;;;;;;4936403;29;20237;-88
2022/06/12 04:46:55;;;;;;;8.40;3.33;;;16.40;99.90;;;;;;4920506;29;20209;-90
2022/06/12 04:49:25;;;;;;;8.63;3.53;;;16.40;99.90;;;;;;4920097;29;20210;-88
2022/06/12 04:51:56;;;;;;;9.65;3.28;;;16.30;99.90;;;;;;4930583;29;20212;-90
2022/06/12 04:54:25;;;;;;;11.55;3.33;;;16.40;99.90;;;;;;4956477;29;20206;-92
2022/06/12 04:56:52;;;;;;;7.15;3.50;;;16.30;99.90;;;;;;4954222;29;20230;-91
2022/06/12 04:59:20;;;;;;;8.43;3.75;;;16.30;99.90;;;;;;4947341;28;20240;-91
2022/06/12 05:01:48;;;;;;;12.75;3.05;;;16.30;99.90;;;;;;4944600;29;20202;-90
2022/06/12 05:04:16;;;;;;;9.80;3.20;;;16.40;99.90;;;;;;4943942;29;20213;-92
2022/06/12 05:06:44;;;;;;;11.95;3.30;;;16.50;99.90;;;;;;4940610;29;20220;-90
2022/06/12 05:09:14;;;;;;;11.65;3.42;;;16.50;99.90;;;;;;4938703;29;20607;-89
2022/06/12 05:11:42;;;;;;;7.63;2.70;;;16.60;99.90;;;;;;4937165;29;20277;-87
2022/06/12 05:14:10;;;;;;;10.75;3.10;;;16.70;99.90;;;;;;4938319;29;20217;-91
2022/06/12 05:16:39;;;;;;;11.32;3.25;;;16.70;99.90;;;;;;4936931;29;20226;-88
2022/06/12 05:19:10;;;;;;;7.25;3.10;;;16.80;99.90;;;;;;4932681;29;20301;-88
2022/06/12 05:21:37;;;;;;;7.65;2.97;;;16.90;99.90;;;;;;4932256;29;20198;-90
2022/06/12 05:24:05;;;;;;;16.17;3.22;;;17.10;99.90;;;;;;4933956;29;20221;-88
2022/06/12 05:26:34;;;;;;;5.85;2.50;;;17.30;99.90;;;;;;4936552;29;20292;-89
2022/06/12 05:29:02;;;;;;;8.10;2.80;;;17.40;99.90;;;;;;4937369;29;20194;-90
2022/06/12 05:31:29;;;;;;;7.25;2.70;;;17.40;99.90;;;;;;4936736;29;20514;-92
2022/06/12 05:33:56;;;;;;;5.85;2.35;;;17.40;99.90;;;;;;4937322;29;20293;-90
2022/06/12 05:36:24;;;;;;;7.50;3.00;;;17.30;99.90;;;;;;4936165;29;20214;-89
2022/06/12 05:38:51;;;;;;;8.13;2.95;;;17.40;99.90;;;;;;4936142;29;20329;-91
2022/06/12 05:41:20;;;;;;;6.10;2.70;;;17.50;99.90;;;;;;4935280;29;20213;-88
2022/06/12 05:43:49;;;;;;;6.78;2.47;;;17.60;99.90;;;;;;4936763;29;20595;-89
2022/06/12 05:46:17;;;;;;;6.35;2.30;;;17.70;99.90;;;;;;4934828;29;20201;-94
2022/06/12 05:48:45;;;;;;;8.85;2.70;;;18.20;99.90;;;;;;4936487;29;20209;-89
2022/06/12 05:51:13;;;;;;;6.65;2.47;;;18.60;99.90;;;;;;4936520;29;20281;-90
2022/06/12 05:53:40;;;;;;;7.40;2.75;;;18.80;99.90;;;;;;4930070;29;20234;-89
2022/06/12 05:56:10;;;;;;;10.32;2.67;;;19.00;99.90;;;;;;4918562;29;20206;-93
2022/06/12 05:58:37;;;;;;;10.25;3.20;;;19.40;99.90;;;;;;4917896;29;20844;-91
2022/06/12 06:01:09;;;;;;;11.85;2.95;;;19.80;99.90;;;;;;4918056;29;20304;-91
2022/06/12 06:03:36;;;;;;;5.75;2.35;;;20.10;99.90;;;;;;4918056;29;20214;-90
2022/06/12 06:06:05;;;;;;;8.15;2.53;;;20.60;99.90;;;;;;4916970;29;20214;-91
2022/06/12 06:08:32;;;;;;;9.80;2.80;;;20.80;99.90;;;;;;4916726;29;20206;-94
2022/06/12 06:10:59;;;;;;;6.47;2.20;;;21.10;99.90;;;;;;4918861;29;20199;-91
2022/06/12 06:13:27;;;;;;;8.48;2.28;;;21.30;99.90;;;;;;4917893;29;21064;-94
2022/06/12 06:15:54;;;;;;;7.00;2.88;;;21.40;99.90;;;;;;4928658;29;20214;-91
2022/06/12 06:18:22;;;;;;;10.60;2.25;;;21.80;99.90;;;;;;4936055;29;20237;-96
2022/06/12 06:20:49;;;;;;;5.13;2.60;;;22.00;99.90;;;;;;4929527;29;20234;-90
2022/06/12 06:23:16;;;;;;;6.50;2.40;;;22.10;99.90;;;;;;4916200;29;20203;-93
2022/06/12 06:25:44;;;;;;;6.95;2.30;;;22.50;99.90;;;;;;4930732;29;20551;-91
2022/06/12 06:28:16;;;;;;;7.03;2.67;;;22.70;99.90;;;;;;4935757;29;20616;-87
2022/06/12 06:30:43;;;;;;;5.57;2.47;;;22.50;99.90;;;;;;4936725;29;20205;-88
2022/06/12 06:33:11;;;;;;;7.05;2.75;;;22.60;99.90;;;;;;4920919;29;20206;-86
2022/06/12 06:35:40;;;;;;;6.55;2.85;;;22.60;99.90;;;;;;4916503;29;20226;-89
2022/06/12 06:38:08;;;;;;;8.07;3.03;;;22.70;99.90;;;;;;4916885;29;20321;-87
2022/06/12 06:40:36;;;;;;;7.60;2.50;;;22.80;99.90;;;;;;4935420;29;20221;-88
2022/06/12 06:43:03;;;;;;;7.15;2.72;;;23.10;99.90;;;;;;4935036;29;20455;-87
2022/06/12 06:48:24;;;;;;;7.93;2.60;;;23.50;99.90;;;;;;4912348;29;20243;-87
2022/06/12 06:50:53;;;;;;;9.63;2.95;;;23.80;99.90;;;;;;4935751;29;20702;-87
2022/06/12 06:53:21;;;;;;;6.95;3.08;;;24.00;99.90;;;;;;4935745;29;20202;-90
2022/06/12 06:55:49;;;;;;;11.00;3.13;;;24.40;99.90;;;;;;4917451;29;20210;-88
2022/06/12 06:58:21;;;;;;;6.57;3.08;;;24.60;99.90;;;;;;4933109;29;20258;-87
2022/06/12 07:00:50;;;;;;;8.57;3.40;;;24.80;99.90;;;;;;4920927;29;20234;-88
2022/06/12 07:03:18;;;;;;;8.50;2.78;;;24.90;99.90;;;;;;4931813;29;20210;-89
2022/06/12 07:05:48;;;;;;;10.38;3.22;;;25.00;99.90;;;;;;4921950;29;20225;-90
2022/06/12 07:08:18;;;;;;;8.63;2.63;;;25.00;99.90;;;;;;4915325;29;20245;-88
2022/06/12 07:10:46;;;;;;;12.23;3.00;;;25.00;99.90;;;;;;4926593;29;20300;-87
2022/06/12 07:13:13;;;;;;;8.18;2.80;;;25.00;99.90;;;;;;4934179;29;20293;-89
2022/06/12 07:15:40;;;;;;;6.93;2.63;;;25.10;99.90;;;;;;4934757;29;20216;-89
2022/06/12 07:18:09;;;;;;;10.32;3.35;;;25.30;99.90;;;;;;4916995;29;20225;-89
2022/06/12 07:20:39;;;;;;;8.50;3.60;;;25.50;99.90;;;;;;4935071;29;20198;-89
2022/06/12 07:23:08;;;;;;;8.63;2.70;;;25.50;99.90;;;;;;4917026;29;20299;-88
2022/06/12 07:25:40;;;;;;;10.00;3.00;;;25.50;99.90;;;;;;4915369;29;20207;-89
2022/06/12 07:28:07;;;;;;;6.22;2.40;;;25.50;99.90;;;;;;4915757;29;20305;-87
2022/06/12 07:30:34;;;;;;;5.40;2.42;;;25.40;99.90;;;;;;4915685;29;20293;-89
2022/06/12 07:33:01;;;;;;;6.90;2.75;;;25.40;99.90;;;;;;4915249;29;20223;-87
2022/06/12 07:35:29;;;;;;;7.88;2.88;;;25.60;99.90;;;;;;4915049;29;20206;-90
2022/06/12 07:37:57;;;;;;;6.65;2.63;;;25.30;99.90;;;;;;4915019;29;20305;-86
2022/06/12 07:40:27;;;;;;;10.30;2.67;;;25.40;99.90;;;;;;4915196;29;22125;-88
2022/06/12 07:42:56;;;;;;;7.55;2.50;;;25.20;99.90;;;;;;4916309;29;20309;-87
2022/06/12 07:45:22;;;;;;;6.97;2.45;;;25.20;99.90;;;;;;4925732;29;20210;-88
2022/06/12 07:47:49;;;;;;;10.80;2.60;;;25.10;99.90;;;;;;4932655;29;20213;-87
2022/06/12 07:50:16;;;;;;;7.53;3.00;;;24.80;99.90;;;;;;4933976;29;20322;-87
2022/06/12 07:52:44;;;;;;;7.85;3.05;;;24.90;99.90;;;;;;4933469;29;20243;-86
2022/06/12 07:55:15;;;;;;;8.70;2.95;;;25.00;99.90;;;;;;4933875;29;20221;-89
2022/06/12 07:57:42;;;;;;;8.20;2.75;;;25.20;99.90;;;;;;4933566;29;20240;-88
2022/06/12 08:00:13;;;;;;;9.07;2.80;;;25.20;99.90;;;;;;4924286;29;20204;-87
2022/06/12 08:02:40;;;;;;;7.93;2.70;;;25.40;99.90;;;;;;4934548;29;20610;-89
2022/06/12 08:05:08;;;;;;;5.68;2.63;;;25.40;99.90;;;;;;4914684;29;20214;-91
2022/06/12 08:07:35;;;;;;;7.28;2.45;;;25.50;99.90;;;;;;4912743;29;20245;-87
2022/06/12 08:10:03;;;;;;;7.97;2.67;;;25.30;99.90;;;;;;4913483;29;20213;-87
2022/06/12 08:12:31;;;;;;;8.45;3.10;;;25.50;99.90;;;;;;4916591;29;20214;-90
2022/06/12 08:14:58;;;;;;;8.20;2.55;;;25.50;99.90;;;;;;4933191;29;20202;-88
2022/06/12 08:17:26;;;;;;;10.07;3.22;;;25.70;99.90;;;;;;4932572;29;20296;-83
2022/06/12 08:22:38;;;;;;;5.47;2.47;;;25.90;99.90;;;;;;4934446;29;20489;-95
2022/06/12 08:25:06;;;;;;;9.20;3.17;;;26.00;99.90;;;;;;4932742;29;20217;-91
2022/06/12 08:27:32;;;;;;;5.57;2.38;;;26.20;99.90;;;;;;4932172;29;20202;-85
2022/06/12 08:29:59;;;;;;;10.98;2.92;;;26.40;99.90;;;;;;4932705;29;20210;-86
2022/06/12 08:32:28;;;;;;;8.10;2.75;;;26.40;99.90;;;;;;4932394;29;20881;-91
2022/06/12 08:34:56;;;;;;;10.25;3.20;;;26.20;99.90;;;;;;4920447;29;20282;-85
2022/06/12 08:37:28;;;;;;;8.10;3.13;;;26.10;99.90;;;;;;4913621;29;20658;-84
2022/06/12 08:39:55;;;;;;;8.90;3.33;;;26.00;99.90;;;;;;4921238;29;20213;-88
2022/06/12 08:42:24;;;;;;;7.53;3.15;;;26.00;99.90;;;;;;4930466;29;20209;-85
2022/06/12 08:44:54;;;;;;;9.57;2.80;;;26.10;99.90;;;;;;4924341;29;20210;-84
2022/06/12 08:47:34;;;;;;;9.18;3.60;;;25.90;99.90;;;;;;4916324;29;20210;-86
2022/06/12 08:50:14;;;;;;;8.73;3.30;;;25.80;99.90;;;;;;4929420;29;20232;-87
2022/06/12 08:52:45;;;;;;;6.80;2.85;;;25.70;99.90;;;;;;4930890;29;20296;-86
2022/06/12 08:55:20;;;;;;;8.13;2.85;;;25.60;99.90;;;;;;4922842;29;20893;-87
2022/06/12 08:57:53;;;;;;;10.30;3.08;;;25.50;99.90;;;;;;4930536;29;20213;-86
2022/06/12 09:00:24;;;;;;;9.32;3.25;;;25.80;99.90;;;;;;4931697;29;20194;-85
2022/06/12 09:02:53;;;;;;;9.10;3.00;;;26.10;99.90;;;;;;4926309;29;20210;-86
2022/06/12 09:05:26;;;;;;;6.95;3.03;;;26.30;99.90;;;;;;4930131;29;20210;-86
2022/06/12 09:07:58;;;;;;;7.60;3.20;;;26.60;99.90;;;;;;4927222;29;20290;-85
2022/06/12 09:10:33;;;;;;;10.38;2.80;;;26.80;99.90;;;;;;4876803;29;20229;-88
2022/06/12 09:13:09;;;;;;;7.05;3.13;;;26.80;99.90;;;;;;4931661;29;20221;-84
2022/06/12 09:15:45;;;;;;;6.57;2.75;;;27.10;99.90;;;;;;4931862;29;20206;-86
2022/06/12 09:18:25;;;;;;;7.47;2.95;;;27.40;99.90;;;;;;4929461;29;20238;-89
2022/06/12 09:21:03;;;;;;;7.85;3.00;;;27.70;99.90;;;;;;4930940;29;20831;-87
2022/06/12 09:23:38;;;;;;;6.85;2.88;;;27.80;99.90;;;;;;4933065;29;20198;-86
2022/06/12 09:26:16;;;;;;;6.78;2.53;;;27.80;99.90;;;;;;4932259;29;20206;-86
2022/06/12 09:28:53;;;;;;;8.30;2.65;;;27.80;99.90;;;;;;4932272;29;20681;-86
2022/06/12 09:31:25;;;;;;;5.65;2.88;;;27.50;99.90;;;;;;4934235;29;20206;-87
2022/06/12 09:34:07;;;;;;;8.48;2.92;;;27.20;99.90;;;;;;4933793;29;20202;-88
2022/06/12 09:36:48;;;;;;;7.28;2.85;;;27.40;99.90;;;;;;4934252;29;20217;-89
2022/06/12 09:39:31;;;;;;;11.32;3.05;;;27.40;99.90;;;;;;4913573;29;20297;-88
2022/06/12 09:42:06;;;;;;;8.20;2.95;;;26.90;99.90;;;;;;4894438;29;20206;-86
2022/06/12 09:44:41;;;;;;;7.55;2.88;;;26.60;99.90;;;;;;4912636;29;20206;-85
2022/06/12 09:47:12;;;;;;;7.85;2.70;;;26.30;99.90;;;;;;4912280;29;20222;-90
2022/06/12 09:49:50;;;;;;;6.15;2.50;;;26.40;99.90;;;;;;4914067;29;20297;-89
2022/06/12 09:52:50;;;;;;;5.05;2.30;;;26.50;99.90;;;;;;4920503;29;20221;-86
2022/06/12 09:55:25;;;;;;;7.13;2.55;;;26.70;99.90;;;;;;4914899;29;20213;-86
2022/06/12 09:58:00;;;;;;;9.10;2.85;;;26.60;99.90;;;;;;4915811;29;20206;-90
2022/06/12 10:00:34;;;;;;;8.57;3.10;;;26.30;99.90;;;;;;4916259;29;20198;-87
2022/06/12 10:03:06;;;;;;;8.70;3.08;;;26.10;99.90;;;;;;4910263;29;20211;-87
2022/06/12 10:05:40;;;;;;;9.50;2.88;;;25.60;99.90;;;;;;4909939;29;20227;-91
2022/06/12 10:08:13;;;;;;;7.22;2.75;;;25.50;99.90;;;;;;4917405;29;20198;-86
2022/06/12 10:10:46;;;;;;;5.50;2.50;;;25.80;99.90;;;;;;4915474;29;20249;-95
2022/06/12 10:13:17;;;;;;;8.38;3.35;;;26.10;99.90;;;;;;4915966;29;20221;-92
2022/06/12 10:15:48;;;;;;;7.15;2.83;;;26.10;99.90;;;;;;4915716;29;20206;-90
2022/06/12 10:18:21;;;;;;;12.40;3.58;;;26.30;99.90;;;;;;4913764;29;20223;-87
2022/06/12 10:20:54;;;;;;;10.82;3.20;;;26.20;99.90;;;;;;4913192;29;20584;-87
2022/06/12 10:23:21;;;;;;;12.02;3.22;;;26.20;99.90;;;;;;4913857;29;20211;-86
2022/06/12 10:25:53;;;;;;;7.78;3.33;;;26.50;99.90;;;;;;4915006;29;20317;-88
2022/06/12 10:28:24;;;;;;;6.65;2.90;;;26.50;99.90;;;;;;4910898;29;20207;-86
2022/06/12 10:31:01;;;;;;;8.20;3.28;;;26.50;99.90;;;;;;4898112;29;20200;-87
2022/06/12 10:33:31;;;;;;;8.80;3.45;;;26.70;99.90;;;;;;4909859;29;20236;-89
2022/06/12 10:36:01;;;;;;;10.35;3.88;;;27.00;99.90;;;;;;4915019;29;20982;-85
2022/06/12 10:38:36;;;;;;;10.38;4.15;;;26.90;99.90;;;;;;4926851;29;20782;-85
2022/06/12 10:41:06;;;;;;;14.13;3.65;;;26.60;99.90;;;;;;4934311;29;20213;-86
2022/06/12 10:43:35;;;;;;;8.27;3.20;;;26.50;99.90;;;;;;4935092;29;20276;-87
2022/06/12 10:46:07;;;;;;;8.60;3.55;;;26.60;99.90;;;;;;4934956;29;20224;-85
2022/06/12 10:48:36;;;;;;;10.38;4.10;;;26.40;99.90;;;;;;4937565;29;20553;-86
2022/06/12 10:51:21;;;;;;;11.02;3.63;;;26.20;99.90;;;;;;4936256;29;20236;-87
2022/06/12 10:53:56;;;;;;;7.45;3.40;;;26.20;99.90;;;;;;4934873;29;20206;-86
2022/06/12 10:56:28;;;;;;;13.57;4.30;;;26.10;99.90;;;;;;4933156;29;20213;-89
2022/06/12 10:59:17;;;;;;;13.65;5.18;;;25.90;99.90;;;;;;4936057;29;20234;-85
2022/06/12 11:01:58;;;;;;;12.07;5.60;;;25.70;99.90;;;;;;4936426;29;20266;-87
2022/06/12 11:04:35;;;;;;;15.30;5.65;;;25.80;99.90;;;;;;4935703;29;20531;-87
2022/06/12 11:07:19;;;;;;;12.52;5.20;;;26.10;99.90;;;;;;4934684;29;20197;-87
2022/06/12 11:10:00;;;;;;;10.75;3.97;;;26.20;99.90;;;;;;4916575;29;20210;-87
2022/06/12 11:12:47;;;;;;;11.07;3.97;;;26.40;99.90;;;;;;4923931;29;20212;-88
2022/06/12 11:15:30;;;;;;;10.07;3.80;;;26.60;99.90;;;;;;4938011;29;20198;-86
2022/06/12 11:18:05;;;;;;;13.55;4.95;;;26.80;99.90;;;;;;4938940;29;20202;-87
2022/06/12 11:20:42;;;;;;;11.63;5.07;;;27.00;99.90;;;;;;4945284;29;20197;-88
2022/06/12 11:23:22;;;;;;;12.10;4.13;;;27.20;99.90;;;;;;4944233;29;20266;-86
2022/06/12 11:26:12;;;;;;;18.70;5.93;;;27.20;99.90;;;;;;4944657;29;20208;-86
2022/06/12 11:28:54;;;;;;;13.63;5.35;;;27.00;99.90;;;;;;4943446;29;20258;-87
2022/06/12 11:31:34;;;;;;;9.57;3.50;;;26.90;99.90;;;;;;4923828;29;20321;-86
2022/06/12 11:34:20;;;;;;;14.18;4.40;;;26.80;99.90;;;;;;4913928;29;20212;-86
2022/06/12 11:36:57;;;;;;;8.30;3.33;;;26.70;99.90;;;;;;4928128;29;20241;-86
2022/06/12 11:39:43;;;;;;;9.40;3.63;;;26.80;99.90;;;;;;4931999;29;20221;-86
2022/06/12 11:42:41;;;;;;;12.55;3.97;;;26.80;99.90;;;;;;4932036;29;20337;-85
2022/06/12 11:45:18;;;;;;;11.77;3.65;;;26.80;99.90;;;;;;4932484;29;20224;-84
2022/06/12 11:48:01;;;;;;;13.32;4.53;;;26.70;99.90;;;;;;4932067;29;20205;-84
2022/06/12 11:50:36;;;;;;;9.57;4.28;;;26.60;99.90;;;;;;4913708;29;20754;-87
2022/06/12 11:53:19;;;;;;;12.10;4.57;;;26.50;99.90;;;;;;4923272;29;20212;-84
2022/06/12 11:55:53;;;;;;;10.25;3.75;;;26.70;99.90;;;;;;4933273;29;20515;-84
2022/06/12 11:58:40;;;;;;;11.63;4.40;;;26.60;99.90;;;;;;4932636;29;20514;-87
2022/06/12 12:01:16;;;;;;;13.07;3.85;;;26.30;99.90;;;;;;4928267;29;20281;-88
2022/06/12 12:04:06;;;;;;;10.75;4.22;;;26.00;99.90;;;;;;4931434;29;20206;-85
2022/06/12 12:06:51;;;;;;;11.32;3.80;;;25.70;99.90;;;;;;4926748;29;20210;-87
2022/06/12 12:09:31;;;;;;;12.00;4.35;;;25.10;99.90;;;;;;4930095;29;20241;-84
2022/06/12 12:12:04;;;;;;;12.90;3.75;;;24.60;99.90;;;;;;4931633;29;20637;-81
2022/06/12 12:14:34;;;;;;;10.55;3.80;;;24.40;99.90;;;;;;4912816;29;20220;-83
2022/06/12 12:17:07;;;;;;;9.95;3.50;;;24.20;99.90;;;;;;4921438;29;20591;-83
2022/06/12 12:19:41;;;;;;;13.35;4.55;;;24.10;99.90;;;;;;4956062;23;20626;-85
2022/06/12 12:22:15;;;;;;;11.05;4.20;;;23.80;99.90;;;;;;4950074;29;20213;-86
2022/06/12 12:24:47;;;;;;;9.10;4.05;;;23.90;99.90;;;;;;4942200;29;20297;-84
2022/06/12 12:27:30;;;;;;;11.15;4.22;;;23.80;99.90;;;;;;4933079;29;20221;-84
2022/06/12 12:29:58;;;;;;;16.70;5.28;;;23.70;99.90;;;;;;4945562;23;20237;-88
2022/06/12 12:32:26;;;;;;;11.20;5.03;;;24.00;99.90;;;;;;4951017;28;20318;-84
2022/06/12 12:34:56;;;;;;;14.52;5.00;;;24.10;99.90;;;;;;4952212;29;20296;-81
2022/06/12 12:43:17;;;;;;;8.80;3.20;;;24.60;99.90;;;;;;4950558;29;20241;-87
2022/06/12 12:45:45;;;;;;;12.85;3.83;;;24.80;99.90;;;;;;4949916;28;20221;-86
2022/06/12 12:48:14;;;;;;;11.70;3.72;;;25.00;99.90;;;;;;4943773;28;20244;-85
2022/06/12 12:50:47;;;;;;;10.93;4.53;;;25.10;99.90;;;;;;4937377;28;20229;-89
2022/06/12 12:53:23;;;;;;;11.90;4.18;;;25.20;99.90;;;;;;4932401;29;20209;-84
2022/06/12 12:56:00;;;;;;;9.05;4.13;;;25.30;99.90;;;;;;4925154;29;20255;-84
2022/06/12 12:58:30;;;;;;;11.43;3.85;;;25.30;99.90;;;;;;4934324;29;20371;-84
2022/06/12 13:01:06;;;;;;;11.90;3.92;;;24.80;99.90;;;;;;4934435;29;20226;-95
2022/06/12 13:03:39;;;;;;;13.02;3.95;;;24.30;99.90;;;;;;4922288;29;20214;-87
2022/06/12 13:06:23;;;;;;;10.77;3.75;;;23.90;99.90;;;;;;4917419;29;20226;-88
2022/06/12 13:09:23;;;;;;;11.45;3.42;;;23.90;99.90;;;;;;4917586;29;20220;-87
2022/06/12 13:12:05;;;;;;;12.95;3.83;;;23.80;99.90;;;;;;4918191;29;20210;-90
2022/06/12 13:14:51;;;;;;;13.95;4.25;;;23.80;99.90;;;;;;4935952;29;20269;-87
2022/06/12 13:17:30;;;;;;;9.00;3.45;;;24.10;99.90;;;;;;4926175;29;20663;-88
2022/06/12 13:20:24;;;;;;;12.32;4.05;;;24.20;99.90;;;;;;4917157;29;20906;-93
2022/06/12 13:23:02;;;;;;;9.40;3.30;;;23.90;99.90;;;;;;4920756;29;20225;-89
2022/06/12 13:25:35;;;;;;;11.23;3.63;;;23.90;99.90;;;;;;4937373;29;20225;-90